Terminal Aerodrome Forecast
Issued by NWS

Home | Current Version | Previous Version | Text Only | Print | Product List | Glossary On
Versions: 1 2 3 4 5 6 7 8 9 10 11 12 13 14 15 16 17 18
000
FTUS42 KTAE 172300
TAFABY
TAF
KABY 172338Z 1800/1824 07011G18KT P6SM OVC035
     FM180400 08011KT P6SM BKN025
     FM180700 06013KT 5SM RA OVC008
     FM181400 06013G20KT 2SM +RA OVC007
     FM182100 05014G19KT 4SM RA OVC010=

USA.gov is the U.S. government's official web portal to all federal, state and local government web resources and services.